Time;durP1;ratioP1;P1;durP2;ratioP2;P2;SDS_P1;SDS_P2;PMS_P1;PMS_P2;Temp;Humidity;BMP_temperature;BMP_pressure;BME280_temperature;BME280_humidity;BME280_pressure;Samples;Min_cycle;Max_cycle;Signal;HPM_P1;HPM_P2
2021/12/06 00:01:11;;;;;;;46.58;27.52;;;;;;;5.37;72.00;98664.53;4379240;32;34032;-57
2021/12/06 00:03:46;;;;;;;51.83;29.50;;;;;;;5.55;71.69;98667.84;4388470;32;34545;-57
2021/12/06 00:06:14;;;;;;;47.90;27.90;;;;;;;5.50;72.02;98672.50;4388624;32;33287;-57
2021/12/06 00:08:42;;;;;;;46.35;27.98;;;;;;;5.46;72.14;98686.69;4377922;32;33705;-57
2021/12/06 00:11:10;;;;;;;49.53;28.58;;;;;;;5.40;72.12;98687.06;4374141;32;34518;-57
2021/12/06 00:13:41;;;;;;;45.75;27.60;;;;;;;5.41;72.15;98689.59;4373855;32;34911;-57
2021/12/06 00:16:14;;;;;;;47.85;28.38;;;;;;;5.49;71.80;98691.78;4373571;32;34483;-57
2021/12/06 00:18:42;;;;;;;47.25;28.60;;;;;;;5.45;71.98;98693.72;4373681;32;34594;-57
2021/12/06 00:21:10;;;;;;;53.58;30.83;;;;;;;5.37;72.39;98705.56;4373496;32;34075;-57
2021/12/06 00:23:38;;;;;;;46.08;27.67;;;;;;;5.50;71.77;98698.69;4373714;32;34605;-57
2021/12/06 00:26:06;;;;;;;;;;;;;;;5.44;71.71;98685.94;4374173;32;33421;-57
2021/12/06 00:28:34;;;;;;;49.88;29.52;;;;;;;5.43;71.93;98682.50;4373502;32;34017;-57
2021/12/06 00:31:01;;;;;;;;;;;;;;;5.43;71.87;98685.13;4374152;32;34035;-57
2021/12/06 00:33:29;;;;;;;48.38;27.58;;;;;;;5.56;71.26;98689.63;4373717;32;34093;-58
2021/12/06 00:36:03;;;;;;;43.35;25.90;;;;;;;5.49;71.60;98690.00;4373483;32;33166;-57
2021/12/06 00:38:33;;;;;;;47.67;26.48;;;;;;;5.28;72.58;98691.25;4373313;32;33599;-57
2021/12/06 00:41:02;;;;;;;42.75;25.80;;;;;;;5.41;72.22;98691.34;4373533;32;34998;-57
2021/12/06 00:43:30;;;;;;;42.22;25.02;;;;;;;5.42;72.35;98691.28;4373610;32;35331;-57
2021/12/06 00:45:58;;;;;;;46.67;26.37;;;;;;;5.46;71.81;98684.09;4373451;32;33415;-57
2021/12/06 00:48:26;;;;;;;47.97;26.73;;;;;;;5.49;71.81;98686.53;4373160;32;34021;-57
2021/12/06 00:51:14;;;;;;;42.97;24.45;;;;;;;5.49;72.10;98694.38;4373818;32;34241;-57
2021/12/06 00:53:42;;;;;;;41.08;24.92;;;;;;;5.68;71.64;98705.47;4373464;32;33780;-57
2021/12/06 00:56:10;;;;;;;;;;;;;;;5.68;71.57;98713.34;4373974;32;34048;-57
2021/12/06 00:58:38;;;;;;;39.07;23.80;;;;;;;5.76;71.53;98710.25;4373347;32;33963;-57
2021/12/06 01:01:07;;;;;;;40.83;24.10;;;;;;;5.64;71.59;98703.97;4378292;32;33364;-57
2021/12/06 01:03:37;;;;;;;40.12;24.37;;;;;;;5.51;71.87;98709.06;4388736;32;33590;-57
2021/12/06 01:06:06;;;;;;;41.47;24.95;;;;;;;5.71;71.60;98715.75;4388449;32;33607;-57
2021/12/06 01:08:35;;;;;;;40.47;25.17;;;;;;;5.69;71.88;98717.62;4388546;32;33003;-57
2021/12/06 01:11:03;;;;;;;38.80;23.62;;;;;;;5.64;71.95;98709.22;4375113;32;34947;-56
2021/12/06 01:13:31;;;;;;;40.50;23.50;;;;;;;5.63;71.99;98691.78;4373351;32;34702;-57
2021/12/06 01:16:00;;;;;;;40.40;24.17;;;;;;;5.56;72.06;98684.38;4373199;32;33100;-57
2021/12/06 01:18:27;;;;;;;41.28;24.20;;;;;;;5.79;71.41;98681.25;4373530;32;34441;-57
2021/12/06 01:21:12;;;;;;;42.72;25.27;;;;;;;5.65;71.60;98676.81;4373232;32;34461;-57
2021/12/06 01:23:49;;;;;;;43.63;26.00;;;;;;;5.77;71.05;98677.03;4373114;32;34567;-57
2021/12/06 01:39:21;;;;;;;45.60;26.65;;;;;;;5.40;71.94;98687.91;4373228;32;34342;-57
2021/12/06 01:41:51;;;;;;;43.87;25.62;;;;;;;5.56;71.23;98694.88;4372746;32;33424;-57
2021/12/06 01:44:21;;;;;;;43.08;25.92;;;;;;;5.15;72.38;98704.16;4373559;32;34937;-57
2021/12/06 01:47:00;;;;;;;42.67;24.87;;;;;;;5.38;71.41;98686.31;4373228;32;33101;-57
2021/12/06 01:49:33;;;;;;;43.05;25.12;;;;;;;5.09;72.23;98691.44;4373038;32;33627;-57
2021/12/06 01:52:04;;;;;;;41.88;26.08;;;;;;;5.21;72.27;98693.34;4372631;32;34521;-57
2021/12/06 01:54:32;;;;;;;43.67;26.55;;;;;;;5.34;71.68;98688.25;4373052;32;34067;-57
2021/12/06 01:57:01;;;;;;;39.50;24.75;;;;;;;5.37;71.48;98690.72;4373491;32;33329;-57
2021/12/06 01:59:28;;;;;;;40.90;25.92;;;;;;;5.43;70.43;98694.72;4373319;32;33408;-56
2021/12/06 02:01:56;;;;;;;41.42;26.80;;;;;;;5.64;68.27;98709.22;4372548;32;34029;-57
2021/12/06 02:04:25;;;;;;;40.90;26.45;;;;;;;4.86;70.71;98705.81;4373165;32;33947;-57
2021/12/06 02:06:52;;;;;;;;;;;;;;;4.75;70.52;98701.19;4373574;32;33818;-57
2021/12/06 02:09:19;;;;;;;44.40;27.55;;;;;;;4.75;71.12;98701.19;4372685;32;33611;-57
2021/12/06 02:11:48;;;;;;;46.88;27.87;;;;;;;4.44;72.05;98694.16;4372718;32;34218;-57
2021/12/06 02:14:30;;;;;;;;;;;;;;;4.58;71.85;98690.81;4373461;32;33873;-57
2021/12/06 02:17:41;;;;;;;43.30;26.98;;;;;;;4.76;71.23;98691.56;4373251;32;33502;-57
2021/12/06 02:20:07;;;;;;;39.85;26.73;;;;;;;4.62;71.99;98687.94;4371971;32;33416;-57
2021/12/06 02:22:37;;;;;;;41.95;26.58;;;;;;;4.71;71.64;98690.06;4372457;32;33655;-57
2021/12/06 02:25:08;;;;;;;38.53;25.17;;;;;;;4.70;71.57;98680.50;4372927;32;34350;-57
2021/12/06 02:27:35;;;;;;;39.25;25.15;;;;;;;4.93;70.45;98674.00;4372186;32;32969;-57
2021/12/06 02:30:05;;;;;;;39.17;25.33;;;;;;;4.64;70.96;98682.63;4372961;32;34510;-57
2021/12/06 02:32:35;;;;;;;39.88;25.73;;;;;;;4.69;70.64;98678.84;4372409;32;35257;-57
2021/12/06 02:35:05;;;;;;;36.97;24.30;;;;;;;4.60;71.44;98676.72;4372659;32;33927;-57
2021/12/06 02:37:34;;;;;;;37.08;24.63;;;;;;;4.82;69.99;98676.38;4358666;32;32539;-57
2021/12/06 02:40:08;;;;;;;38.08;23.35;;;;;;;4.29;71.92;98690.63;4372509;32;34662;-57
2021/12/06 02:42:38;;;;;;;34.65;22.15;;;;;;;4.70;70.40;98688.34;4371942;32;34901;-57
2021/12/06 02:45:08;;;;;;;36.15;22.52;;;;;;;4.26;72.57;98689.00;4363166;32;34195;-57
2021/12/06 02:47:36;;;;;;;32.80;22.40;;;;;;;4.20;73.23;98691.09;4369264;32;34520;-57
2021/12/06 02:50:08;;;;;;;30.98;21.75;;;;;;;4.15;73.57;98691.34;4357643;32;33965;-57
2021/12/06 02:52:36;;;;;;;32.40;21.73;;;;;;;4.26;73.50;98690.78;4358597;32;33949;-57
2021/12/06 02:55:23;;;;;;;32.75;22.25;;;;;;;4.31;73.45;98694.00;4372302;32;33653;-57
2021/12/06 02:57:55;;;;;;;35.72;23.42;;;;;;;4.17;73.20;98696.47;4372505;32;33284;-57
2021/12/06 03:00:25;;;;;;;34.67;23.05;;;;;;;4.06;73.71;98700.50;4372642;32;34046;-57
2021/12/06 03:02:53;;;;;;;32.58;22.75;;;;;;;4.29;73.39;98703.69;4386294;32;34898;-56
2021/12/06 03:05:21;;;;;;;33.42;21.70;;;;;;;4.27;72.88;98705.53;4371967;32;34782;-57
2021/12/06 03:07:57;;;;;;;;;;;;;;;4.38;72.63;98724.12;4372606;32;34197;-57
2021/12/06 03:10:25;;;;;;;31.37;21.05;;;;;;;4.35;72.70;98721.66;4372497;32;34366;-57
2021/12/06 03:12:52;;;;;;;;;;;;;;;4.29;73.05;98716.75;4372544;32;35477;-57
2021/12/06 03:15:20;;;;;;;29.10;20.27;;;;;;;4.31;73.30;98709.69;4371926;32;35031;-57
2021/12/06 03:17:49;;;;;;;28.45;20.23;;;;;;;4.45;71.80;98699.31;4371974;32;33674;-58
2021/12/06 03:20:17;;;;;;;;;;;;;;;4.28;72.45;98694.16;4372348;32;33525;-57
2021/12/06 03:22:44;;;;;;;28.90;20.00;;;;;;;4.43;72.07;98701.16;4371939;32;34695;-57
2021/12/06 03:25:15;;;;;;;32.10;21.48;;;;;;;4.07;73.10;98711.78;4371734;32;34722;-57
2021/12/06 03:27:45;;;;;;;28.83;19.70;;;;;;;4.26;72.50;98714.28;4371993;32;33568;-57
2021/12/06 03:30:13;;;;;;;29.85;20.48;;;;;;;4.27;71.96;98713.37;4372033;32;33736;-57
2021/12/06 03:32:41;;;;;;;29.12;20.33;;;;;;;4.06;73.04;98716.19;4371866;32;34008;-57
2021/12/06 03:35:10;;;;;;;30.10;20.75;;;;;;;3.83;73.74;98711.31;4371698;32;34578;-57
2021/12/06 03:37:38;;;;;;;30.08;20.62;;;;;;;3.94;73.86;98714.22;4371471;32;34540;-58
2021/12/06 03:40:07;;;;;;;29.90;20.92;;;;;;;4.04;73.53;98718.03;4372763;32;35004;-57
2021/12/06 03:42:34;;;;;;;31.60;21.77;;;;;;;4.08;72.79;98719.56;4374026;32;34482;-57
2021/12/06 03:45:05;;;;;;;31.55;22.05;;;;;;;3.76;74.09;98726.44;4374019;32;35022;-57
2021/12/06 03:47:33;;;;;;;32.53;21.73;;;;;;;3.93;73.27;98725.56;4373941;32;33277;-57
2021/12/06 03:50:03;;;;;;;35.72;23.20;;;;;;;3.74;74.20;98723.94;4374102;32;33538;-57
2021/12/06 03:52:31;;;;;;;32.13;21.67;;;;;;;3.91;74.00;98723.03;4373887;32;34193;-58
2021/12/06 03:54:59;;;;;;;31.95;21.05;;;;;;;3.94;73.71;98725.50;4373745;32;34225;-57
2021/12/06 03:57:27;;;;;;;29.08;20.75;;;;;;;4.05;73.18;98717.12;4374147;32;33251;-57
2021/12/06 03:59:54;;;;;;;32.25;20.70;;;;;;;3.99;73.33;98712.19;4373785;32;33752;-57
2021/12/06 04:02:26;;;;;;;29.17;20.85;;;;;;;3.92;73.70;98714.28;4386796;32;33933;-57
2021/12/06 04:04:54;;;;;;;26.70;18.80;;;;;;;3.94;73.26;98712.44;4387986;32;34095;-57
2021/12/06 04:07:22;;;;;;;;;;;;;;;3.91;73.21;98723.03;4374178;32;34330;-57
2021/12/06 04:09:50;;;;;;;28.23;20.10;;;;;;;4.29;71.81;98727.22;4374074;32;34794;-57
2021/12/06 04:12:18;;;;;;;;;;;;;;;3.94;72.70;98711.63;4374046;32;35260;-57
2021/12/06 04:14:47;;;;;;;26.90;19.03;;;;;;;4.04;73.01;98702.34;4374304;32;34683;-57
2021/12/06 04:17:16;;;;;;;25.75;18.85;;;;;;;3.94;73.05;98702.00;4373262;32;34536;-57
2021/12/06 04:19:44;;;;;;;25.67;18.73;;;;;;;4.12;72.87;98707.19;4373933;32;33544;-57
2021/12/06 04:22:12;;;;;;;26.73;19.27;;;;;;;4.31;71.73;98714.91;4373386;32;34988;-57
2021/12/06 04:24:40;;;;;;;25.92;17.92;;;;;;;4.13;72.07;98721.94;4373604;32;33789;-57
2021/12/06 04:27:15;;;;;;;25.98;18.87;;;;;;;3.78;73.01;98719.41;4373469;32;33438;-56
2021/12/06 04:29:47;;;;;;;24.25;17.35;;;;;;;3.62;73.56;98724.53;4373314;32;33904;-56
2021/12/06 04:32:16;;;;;;;25.55;18.08;;;;;;;4.03;72.05;98726.81;4374030;32;35467;-57
2021/12/06 04:34:44;;;;;;;25.23;18.42;;;;;;;3.90;72.58;98730.97;4373407;32;34057;-57
2021/12/06 04:37:11;;;;;;;26.27;17.95;;;;;;;3.63;73.93;98725.41;4373083;32;33623;-57
2021/12/06 04:39:39;;;;;;;;;;;;;;;3.50;74.34;98731.22;4373948;32;33745;-56
2021/12/06 04:42:07;;;;;;;25.00;17.55;;;;;;;3.66;73.95;98727.84;4373911;32;34387;-57
2021/12/06 04:44:35;;;;;;;26.15;17.40;;;;;;;3.62;73.40;98724.53;4373105;32;34121;-57
2021/12/06 04:47:04;;;;;;;24.70;17.15;;;;;;;3.44;74.43;98728.91;4373084;32;34243;-57
2021/12/06 04:49:32;;;;;;;23.23;16.23;;;;;;;3.70;73.74;98735.44;4371344;32;33485;-57
2021/12/06 04:52:02;;;;;;;23.65;16.27;;;;;;;3.64;73.58;98740.97;4371933;32;35394;-57
2021/12/06 04:54:35;;;;;;;22.60;16.33;;;;;;;3.45;74.27;98751.50;4373761;32;33556;-57
2021/12/06 04:57:16;;;;;;;29.08;16.62;;;;;;;3.74;73.58;98743.94;4373714;32;33174;-57
2021/12/06 04:59:48;;;;;;;24.30;16.42;;;;;;;3.62;73.84;98739.34;4373539;32;33500;-57
2021/12/06 05:02:20;;;;;;;23.92;16.52;;;;;;;3.46;74.42;98740.12;4373747;32;35211;-57
2021/12/06 05:04:54;;;;;;;25.62;16.62;;;;;;;3.54;74.25;98755.41;4373010;32;34273;-57
2021/12/06 05:07:32;;;;;;;23.08;16.75;;;;;;;3.71;73.48;98750.19;4380507;32;33392;-57
2021/12/06 05:10:01;;;;;;;24.35;17.48;;;;;;;3.58;73.94;98751.72;4388485;32;33551;-58
2021/12/06 05:12:30;;;;;;;27.87;18.20;;;;;;;3.62;73.81;98752.41;4374652;32;34152;-57
2021/12/06 05:14:58;;;;;;;25.77;18.33;;;;;;;3.47;74.42;98764.44;4373593;32;34099;-57
2021/12/06 05:17:28;;;;;;;26.80;18.65;;;;;;;3.46;74.33;98766.22;4381928;32;33766;-57
2021/12/06 05:19:56;;;;;;;27.52;19.30;;;;;;;3.67;73.89;98769.53;4365345;32;33445;-57
2021/12/06 05:22:24;;;;;;;28.80;18.98;;;;;;;3.47;74.67;98775.75;4373204;32;35284;-57
2021/12/06 05:24:52;;;;;;;26.48;19.33;;;;;;;3.52;75.14;98778.12;4359547;32;33747;-57
2021/12/06 05:27:26;;;;;;;26.05;18.33;;;;;;;3.70;74.10;98784.19;4373287;32;33673;-57
2021/12/06 05:29:58;;;;;;;23.48;17.23;;;;;;;3.83;73.63;98777.44;4373016;32;34094;-57
2021/12/06 05:32:28;;;;;;;25.95;18.55;;;;;;;3.97;72.72;98783.72;4373199;32;35022;-57
2021/12/06 05:35:04;;;;;;;26.83;18.90;;;;;;;3.83;73.87;98779.22;4373267;32;34133;-57
2021/12/06 05:37:32;;;;;;;25.77;17.92;;;;;;;3.87;74.00;98776.34;4373623;32;33327;-57
2021/12/06 05:39:59;;;;;;;24.80;17.73;;;;;;;4.09;73.57;98776.13;4377225;32;33815;-57
2021/12/06 05:42:27;;;;;;;25.48;17.17;;;;;;;4.29;73.18;98769.84;4379132;32;34308;-57
2021/12/06 05:44:54;;;;;;;23.83;17.80;;;;;;;4.16;73.83;98779.25;4372506;32;34610;-57
2021/12/06 05:47:22;;;;;;;24.12;17.45;;;;;;;4.13;74.00;98780.28;4373113;32;33648;-57
2021/12/06 05:49:49;;;;;;;23.20;16.67;;;;;;;4.09;74.16;98775.25;4373283;32;33703;-56
2021/12/06 05:52:17;;;;;;;22.50;16.98;;;;;;;4.23;74.15;98785.03;4372689;32;34885;-57
2021/12/06 05:54:44;;;;;;;22.65;15.55;;;;;;;5.13;82.81;98784.53;4372956;32;34128;-57
2021/12/06 05:57:12;;;;;;;22.90;15.50;;;;;;;4.90;80.03;98788.41;4373018;32;33900;-58
2021/12/06 05:59:40;;;;;;;23.40;16.02;;;;;;;4.86;79.42;98792.97;4372859;32;34706;-57
2021/12/06 06:02:09;;;;;;;;;;;;;;;4.53;75.42;98791.22;4372761;32;35033;-57
2021/12/06 06:04:40;;;;;;;25.83;17.42;;;;;;;4.70;73.69;98790.34;4369692;32;34011;-57
2021/12/06 06:07:07;;;;;;;26.15;17.42;;;;;;;4.42;72.35;98788.38;4358172;32;34460;-58
2021/12/06 06:09:35;;;;;;;28.00;19.20;;;;;;;4.17;72.34;98809.69;4358141;32;34052;-57
2021/12/06 06:12:04;;;;;;;;;;;;;;;4.12;72.12;98815.16;4388385;32;33987;-57
2021/12/06 06:14:32;;;;;;;29.63;20.65;;;;;;;4.11;72.39;98828.28;4386251;32;33853;-57
2021/12/06 06:17:08;;;;;;;33.88;21.77;;;;;;;3.97;72.36;98820.31;4372512;32;33517;-57
2021/12/06 06:19:40;;;;;;;36.75;23.42;;;;;;;3.77;73.44;98822.16;4373326;32;33931;-57
2021/12/06 06:22:07;;;;;;;33.70;22.75;;;;;;;3.90;73.17;98823.22;4387850;32;33988;-57
2021/12/06 06:24:35;;;;;;;38.15;23.73;;;;;;;4.04;72.23;98827.75;4385274;32;34183;-57
2021/12/06 06:27:04;;;;;;;35.83;23.42;;;;;;;3.96;72.64;98829.09;4372201;32;34522;-57
2021/12/06 06:29:32;;;;;;;37.25;22.87;;;;;;;3.95;72.54;98828.22;4373892;32;33713;-58
2021/12/06 06:32:00;;;;;;;37.58;24.33;;;;;;;3.98;72.78;98828.06;4379233;32;34548;-56
2021/12/06 06:34:27;;;;;;;36.15;23.77;;;;;;;4.01;73.04;98830.50;4372622;32;33721;-57
2021/12/06 06:36:55;;;;;;;37.67;24.70;;;;;;;4.12;72.49;98830.81;4372093;32;34038;-56
2021/12/06 06:39:22;;;;;;;38.67;24.45;;;;;;;3.84;73.19;98840.94;4365978;32;34490;-57
2021/12/06 06:41:51;;;;;;;40.47;25.48;;;;;;;3.83;73.29;98844.50;4357733;32;34639;-58
2021/12/06 06:44:20;;;;;;;37.78;24.40;;;;;;;3.63;74.25;98846.31;4358328;32;33973;-57
2021/12/06 06:46:49;;;;;;;43.15;26.40;;;;;;;3.63;73.91;98854.16;4387460;32;33102;-57
2021/12/06 06:49:17;;;;;;;41.45;25.95;;;;;;;3.52;75.00;98857.25;4387415;32;34580;-57
2021/12/06 06:51:48;;;;;;;43.15;26.70;;;;;;;3.58;74.66;98860.50;4373773;32;34046;-57
2021/12/06 06:54:16;;;;;;;42.45;26.35;;;;;;;3.79;74.25;98864.69;4387341;32;34137;-57
2021/12/06 06:56:43;;;;;;;45.58;27.67;;;;;;;3.55;75.07;98869.34;4381679;32;33537;-57
2021/12/06 06:59:11;;;;;;;45.30;27.10;;;;;;;3.63;75.14;98867.22;4374154;32;33772;-57
2021/12/06 07:01:39;;;;;;;49.70;29.90;;;;;;;3.82;74.45;98876.75;4372621;32;34148;-57
2021/12/06 07:04:08;;;;;;;48.67;29.73;;;;;;;3.86;74.26;98886.16;4361856;32;34802;-57
2021/12/06 07:06:35;;;;;;;;;;;;;;;3.73;74.77;98880.66;4374058;32;34472;-57
2021/12/06 07:09:04;;;;;;;48.53;28.17;;;;;;;3.91;74.44;98890.19;4369591;32;33783;-57
2021/12/06 07:11:32;;;;;;;50.33;28.40;;;;;;;3.69;74.96;98892.19;4373583;32;33285;-57
2021/12/06 07:13:59;;;;;;;48.70;29.75;;;;;;;3.93;74.13;98900.59;4371059;32;34267;-57
2021/12/06 07:16:27;;;;;;;48.87;29.80;;;;;;;3.66;74.65;98900.16;4360566;32;33226;-57
2021/12/06 07:18:55;;;;;;;51.67;32.00;;;;;;;3.70;74.72;98917.34;4373927;32;33420;-57
2021/12/06 07:21:22;;;;;;;55.20;32.83;;;;;;;3.93;73.93;98913.63;4374616;32;34294;-57
2021/12/06 07:23:51;;;;;;;54.33;32.70;;;;;;;3.86;74.31;98912.28;4373558;32;34098;-57
2021/12/06 07:26:20;;;;;;;57.67;33.28;;;;;;;3.72;75.05;98910.28;4377355;32;33901;-57
2021/12/06 07:28:50;;;;;;;77.28;41.50;;;;;;;3.77;74.64;98912.69;4388060;32;34239;-57
2021/12/06 07:31:18;;;;;;;73.40;40.78;;;;;;;3.67;75.17;98912.28;4358892;32;34060;-57
2021/12/06 07:33:47;;;;;;;75.35;40.65;;;;;;;3.70;75.01;98913.00;4373910;32;34307;-57
2021/12/06 07:36:23;;;;;;;76.90;42.05;;;;;;;4.00;74.39;98919.44;4373684;32;33471;-57
2021/12/06 07:38:51;;;;;;;63.10;36.28;;;;;;;3.84;74.24;98914.06;4372754;32;33583;-57
2021/12/06 07:41:21;;;;;;;64.82;37.42;;;;;;;3.90;74.28;98919.03;4373274;32;35411;-57
2021/12/06 07:43:49;;;;;;;65.75;36.58;;;;;;;3.80;74.74;98921.25;4374572;32;33896;-57
2021/12/06 07:46:17;;;;;;;75.90;40.55;;;;;;;3.58;75.55;98929.22;4375126;32;33409;-57
2021/12/06 07:48:45;;;;;;;64.78;36.95;;;;;;;4.10;73.84;98933.72;4388605;32;33724;-57
2021/12/06 07:51:13;;;;;;;65.22;37.65;;;;;;;3.98;74.12;98923.88;4383389;32;34045;-57
2021/12/06 07:53:42;;;;;;;73.87;41.13;;;;;;;3.99;74.04;98934.22;4372727;32;33826;-57
2021/12/06 07:56:10;;;;;;;82.85;45.08;;;;;;;3.73;74.97;98935.50;4373006;32;33775;-57
2021/12/06 07:58:38;;;;;;;84.95;45.47;;;;;;;3.72;75.35;98925.97;4373282;32;34339;-57
2021/12/06 08:01:05;;;;;;;;;;;;;;;3.98;74.60;98929.94;4373748;32;34539;-57
2021/12/06 08:03:36;;;;;;;72.87;41.37;;;;;;;4.05;74.24;98930.47;4381986;32;34081;-57
2021/12/06 08:06:04;;;;;;;81.68;42.90;;;;;;;3.86;74.67;98925.31;4378342;32;33358;-57
2021/12/06 08:08:33;;;;;;;82.03;45.58;;;;;;;3.55;75.75;98932.84;4373506;32;34605;-57
2021/12/06 08:11:06;;;;;;;82.07;43.87;;;;;;;3.59;75.73;98930.94;4373228;32;34314;-57
2021/12/06 08:13:34;;;;;;;85.05;45.15;;;;;;;3.64;75.85;98934.16;4371951;32;33946;-57
2021/12/06 08:16:08;;;;;;;80.03;43.33;;;;;;;3.49;76.56;98933.13;4377599;32;34192;-57
2021/12/06 08:18:35;;;;;;;83.43;44.00;;;;;;;3.55;76.25;98932.00;4374540;32;34625;-58
2021/12/06 08:21:03;;;;;;;;;;;;;;;3.78;76.18;98937.88;4373591;32;35095;-57
2021/12/06 08:23:31;;;;;;;81.18;45.38;;;;;;;3.82;75.58;98942.91;4373344;32;34375;-57
2021/12/06 08:26:00;;;;;;;72.10;41.85;;;;;;;3.78;75.49;98945.72;4372130;32;34223;-57
2021/12/06 08:28:29;;;;;;;73.75;42.13;;;;;;;3.76;75.53;98943.16;4372952;32;33354;-57
2021/12/06 08:30:56;;;;;;;77.93;43.20;;;;;;;3.63;76.11;98942.91;4374081;32;34051;-57
2021/12/06 08:33:25;;;;;;;77.28;42.88;;;;;;;3.73;75.79;98946.78;4372844;32;34701;-57
2021/12/06 08:35:53;;;;;;;78.95;43.08;;;;;;;3.63;76.55;98958.59;4373601;32;33388;-57
2021/12/06 08:38:22;;;;;;;;;;;;;;;3.62;76.51;98961.25;4360288;32;33488;-57
2021/12/06 08:40:49;;;;;;;76.82;41.63;;;;;;;3.84;75.73;98963.69;4372919;32;34038;-57
2021/12/06 08:43:19;;;;;;;81.87;43.63;;;;;;;3.70;76.13;98970.44;4379443;32;33785;-57
2021/12/06 08:45:50;;;;;;;75.22;41.35;;;;;;;3.67;76.47;98965.34;4388209;32;33128;-57
2021/12/06 08:48:19;;;;;;;70.20;40.03;;;;;;;3.78;76.38;98974.44;4388118;32;33699;-57
2021/12/06 08:50:46;;;;;;;68.05;39.97;;;;;;;3.96;75.71;98970.13;4385514;32;34297;-57
2021/12/06 08:53:14;;;;;;;68.72;40.10;;;;;;;4.05;75.21;98978.38;4373452;32;34888;-57
2021/12/06 08:55:41;;;;;;;;;;;;;;;3.95;75.41;98971.87;4374145;32;33931;-57
2021/12/06 08:58:09;;;;;;;69.60;39.80;;;;;;;3.73;76.34;98978.13;4373273;32;34958;-57
2021/12/06 09:00:38;;;;;;;70.90;42.22;;;;;;;3.65;77.08;98979.41;4372737;32;34484;-56
2021/12/06 09:03:10;;;;;;;65.40;39.40;;;;;;;3.63;77.03;98976.03;4374245;32;34089;-57
2021/12/06 09:05:41;;;;;;;63.17;38.28;;;;;;;3.58;77.03;98978.81;4372942;32;33197;-57
2021/12/06 09:08:09;;;;;;;61.53;38.17;;;;;;;3.68;76.63;98972.28;4372749;32;34604;-57
2021/12/06 09:10:43;;;;;;;54.13;34.50;;;;;;;3.74;76.87;98977.22;4372844;32;34062;-57
2021/12/06 09:13:10;;;;;;;53.83;34.50;;;;;;;3.83;76.13;98975.91;4373964;32;34278;-57
2021/12/06 09:15:38;;;;;;;51.55;35.20;;;;;;;3.98;75.75;98969.12;4373035;32;33151;-57
2021/12/06 09:18:05;;;;;;;48.10;32.25;;;;;;;4.25;74.82;98972.19;4372966;32;33628;-57
2021/12/06 09:20:37;;;;;;;47.08;31.52;;;;;;;4.18;75.03;98964.72;4372461;32;34185;-57
2021/12/06 09:23:06;;;;;;;46.17;32.45;;;;;;;4.40;74.47;98957.50;4381097;32;34301;-57
2021/12/06 09:25:34;;;;;;;44.72;30.25;;;;;;;4.36;74.65;98953.34;4388334;32;33776;-57
2021/12/06 09:28:02;;;;;;;;;;;;;;;4.42;74.42;98945.22;4388240;32;33718;-57
2021/12/06 09:30:32;;;;;;;42.03;28.27;;;;;;;4.47;74.51;98943.19;4387946;32;35671;-57
2021/12/06 09:33:02;;;;;;;42.95;29.30;;;;;;;4.45;74.41;98941.59;4378557;32;33700;-57
2021/12/06 09:35:35;;;;;;;43.83;29.35;;;;;;;4.43;74.43;98941.66;4372365;32;32727;-57
2021/12/06 09:38:05;;;;;;;41.28;27.87;;;;;;;4.52;74.01;98933.34;4373614;32;34762;-57
2021/12/06 09:40:35;;;;;;;43.97;29.33;;;;;;;4.41;74.52;98942.66;4365463;32;34021;-57
2021/12/06 09:43:04;;;;;;;42.47;29.58;;;;;;;4.48;74.08;98944.91;4372771;32;33919;-57
2021/12/06 09:45:33;;;;;;;47.67;31.52;;;;;;;4.47;74.53;98948.41;4371971;32;33864;-57
2021/12/06 09:48:03;;;;;;;43.33;29.48;;;;;;;4.64;74.46;98944.97;4371665;32;34056;-57
2021/12/06 09:50:38;;;;;;;41.35;28.45;;;;;;;4.73;73.87;98941.03;4371434;32;33828;-57
2021/12/06 09:53:10;;;;;;;40.25;27.92;;;;;;;4.59;74.23;98949.56;4372311;32;34808;-57
2021/12/06 09:55:38;;;;;;;41.17;28.95;;;;;;;4.64;74.05;98947.56;4372795;32;32940;-57
2021/12/06 09:58:06;;;;;;;40.17;27.85;;;;;;;4.57;75.13;98943.56;4373152;32;33594;-57
2021/12/06 10:00:36;;;;;;;;;;;;;;;4.80;73.46;98928.47;4372594;32;34953;-57
2021/12/06 10:03:04;;;;;;;39.45;28.00;;;;;;;5.06;72.56;98929.72;4377853;32;34428;-57
2021/12/06 10:05:31;;;;;;;40.78;28.05;;;;;;;4.70;73.40;98922.88;4373559;32;33176;-57
2021/12/06 10:08:00;;;;;;;38.10;27.92;;;;;;;4.67;73.88;98916.06;4373755;32;34492;-57
2021/12/06 10:10:28;;;;;;;38.28;28.38;;;;;;;4.73;73.55;98912.28;4378818;32;34216;-57
2021/12/06 10:12:56;;;;;;;37.83;27.75;;;;;;;4.74;73.61;98914.78;4372051;32;33749;-57
2021/12/06 10:15:26;;;;;;;36.05;27.40;;;;;;;4.80;73.36;98918.84;4372884;32;33605;-57
2021/12/06 10:17:56;;;;;;;37.28;27.67;;;;;;;4.72;73.88;98918.41;4373543;32;34503;-57
2021/12/06 10:20:24;;;;;;;34.70;25.88;;;;;;;4.69;73.57;98913.34;4382221;32;35078;-57
2021/12/06 10:22:54;;;;;;;38.80;28.02;;;;;;;4.86;72.66;98915.06;4372278;32;34494;-57
2021/12/06 10:25:35;;;;;;;38.15;28.12;;;;;;;5.07;72.42;98905.25;4372349;32;34424;-57
2021/12/06 10:28:12;;;;;;;37.00;27.85;;;;;;;4.80;73.56;98910.19;4377457;32;33645;-57
2021/12/06 10:30:49;;;;;;;35.70;26.83;;;;;;;4.62;74.49;98912.81;4387528;32;35093;-57
2021/12/06 10:33:21;;;;;;;39.20;28.40;;;;;;;4.91;73.61;98900.84;4387444;32;33909;-57
2021/12/06 10:36:02;;;;;;;34.78;26.23;;;;;;;4.71;74.32;98909.72;4387309;32;33627;-57
2021/12/06 10:38:33;;;;;;;38.42;28.52;;;;;;;4.89;73.62;98920.16;4378137;32;33543;-57
2021/12/06 10:41:05;;;;;;;34.30;26.17;;;;;;;4.86;73.37;98936.84;4372579;32;35297;-57
2021/12/06 10:43:33;;;;;;;34.70;25.75;;;;;;;4.83;73.87;98944.03;4372808;32;33794;-57
2021/12/06 10:46:04;;;;;;;35.40;26.12;;;;;;;4.81;73.36;98959.81;4371677;32;33573;-57
2021/12/06 10:48:34;;;;;;;33.75;24.80;;;;;;;4.89;73.25;98975.94;4382089;32;34854;-57
2021/12/06 10:51:06;;;;;;;32.10;24.90;;;;;;;5.10;72.34;98986.22;4388931;32;34496;-57
2021/12/06 10:54:02;;;;;;;33.20;24.92;;;;;;;5.15;72.25;98988.59;4388729;32;34636;-57
2021/12/06 10:56:44;;;;;;;30.40;23.98;;;;;;;5.08;72.29;98998.56;4389320;32;33421;-57
2021/12/06 10:59:21;;;;;;;33.30;24.98;;;;;;;5.11;71.52;99001.00;4373949;32;33480;-57
2021/12/06 11:01:52;;;;;;;31.25;24.02;;;;;;;4.86;72.20;99001.41;4374075;32;35181;-57
2021/12/06 11:04:25;;;;;;;32.55;24.45;;;;;;;4.96;71.84;99005.25;4386998;32;33852;-57
2021/12/06 11:06:58;;;;;;;30.98;24.30;;;;;;;4.99;72.18;98996.41;4380614;32;33976;-57
2021/12/06 11:09:31;;;;;;;35.15;25.65;;;;;;;5.01;72.11;98987.53;4382657;32;34641;-57
2021/12/06 11:12:01;;;;;;;32.72;22.48;;;;;;;5.13;72.26;98986.06;4372999;32;35490;-57
2021/12/06 11:14:32;;;;;;;28.85;22.52;;;;;;;5.00;72.32;98980.63;4372667;32;34196;-57
2021/12/06 11:17:10;;;;;;;30.80;22.10;;;;;;;4.95;72.39;98992.25;4376707;32;32972;-57
2021/12/06 11:19:38;;;;;;;27.52;22.00;;;;;;;5.17;71.56;99000.66;4372763;32;33605;-58
2021/12/06 11:22:10;;;;;;;27.90;20.60;;;;;;;5.16;71.94;99003.34;4372463;32;35003;-57
2021/12/06 11:24:46;;;;;;;26.70;19.87;;;;;;;5.06;71.29;99006.47;4372125;32;34988;-57
2021/12/06 11:27:20;;;;;;;27.83;20.73;;;;;;;5.48;70.28;99009.53;4373640;32;32996;-57
2021/12/06 11:30:10;;;;;;;26.87;20.50;;;;;;;5.27;71.26;99017.59;4373382;32;33595;-57
2021/12/06 11:32:45;;;;;;;47.35;30.27;;;;;;;5.57;69.88;99019.53;4373684;32;34281;-57
2021/12/06 11:35:16;;;;;;;41.95;28.55;;;;;;;5.39;70.72;99013.50;4373927;32;33706;-57
2021/12/06 11:37:47;;;;;;;27.20;20.95;;;;;;;5.37;71.21;99022.34;4373713;32;32820;-57
2021/12/06 11:40:14;;;;;;;31.08;23.05;;;;;;;5.70;70.03;99014.47;4373372;32;33577;-57
2021/12/06 11:43:03;;;;;;;28.02;21.55;;;;;;;5.62;70.11;99017.50;4372475;32;34745;-57
2021/12/06 11:45:39;;;;;;;28.25;22.80;;;;;;;5.48;70.53;99020.84;4388485;32;32808;-57
2021/12/06 11:48:31;;;;;;;30.05;23.02;;;;;;;5.32;71.62;99025.22;4387606;32;33012;-57
2021/12/06 11:51:08;;;;;;;27.58;22.48;;;;;;;5.51;70.83;99018.06;4380258;32;33731;-57
2021/12/06 11:53:55;;;;;;;26.60;20.33;;;;;;;5.36;71.62;99015.44;4377197;32;34662;-57
2021/12/06 11:56:30;;;;;;;31.65;23.60;;;;;;;5.46;71.06;99025.31;4379819;32;33680;-57
2021/12/06 11:59:01;;;;;;;56.35;35.40;;;;;;;5.35;71.56;99017.22;4372930;32;33763;-57